Airfield :
LOGIN :

Register | Disclaimer

   EN    FR    IT 

 










Legend :    VFR   Marginal VFR   IFR   Intensive IFR   Very Intensive IFR
Visi :
Ceiling :
>= 8 km
>= 3000ft
5 to 8 km
1000 to 3000 ft
1500m to 5 km
500 to 1000 ft
800 to 1500m
200 to 500 ft
< 800m
< 200 ft
Symbols :   Thunderstorms  Fog  Heavy snow  Heavy precipitations  Wind > 20 kt
SIGMETs :     Misc.  Thunderstorms  Icing  Turbulence  Mountain Waves  Volcanic Ashes







- Airport Elevation : 362 ft
- IATA code : WAW


EPWA - Warsaw Okecie

CURRENT METAR :
  • 170230Z 15004KT 9999 BKN026 M03/M04 Q1020 R88/2///95 NOSIG

EXPIRED METARs :
  • 170200Z 14004KT 9999 BKN025 M02/M03 Q1020 R88/2///95 NOSIG
  • 170130Z 14006KT 9999 BKN024 M01/M03 Q1020 R88/2///95 NOSIG
  • 170100Z 16002KT 9999 BKN024 M02/M05 Q1020 R88/2///95 NOSIG
  • 170030Z 16004KT 9999 BKN025 M02/M04 Q1020 R88/2///95 NOSIG
  • 170000Z 17004KT 9999 BKN025 M01/M04 Q1020 R88/2///95 NOSIG

TAF TAF EPWA
Valid from the 17 at 03:00 until the 18 at 03:00 UTC


170230Z 1703/1803 15005KT 9999 BKN025
PROB40 1703/1708 4000 BR BKN006
BECMG 1715/1717 4000 BR
No reported NOTAMs for that airfield.



MET'MAP, your aeronautical weather chart ! - Copyright ORBIFLY December 2007 - Disclaimer

ORBIFLY MET'MAP TEAM :

Programming & Development : Alexandra Zaïnal
Concept & Development : Baudouin d'Aumeries
Co-Development & Prog : Marc-Olivier Méhu
Technical & hardware support : Manuel Goepfert

Contact : metmap@orbifly.com




SOURCES & CREDITS :

   NOAA